Accueil
METAR-TAF:

METAR-TAF

Aéroports :

Aéroport de Lamezia Terme

Lamezia Terme, Italie

latitude: 38-54N, longitude: 016-15E, altitude: 15 m

Observation

Le bulletin a été fait il y a 1 heure et 44 minutes, à 05:50 UTC
Vent 5 kt de est/nord-est
Température 0°C
Humidité 86%
Pression 1024 hPa
Visibilité 10 km ou plus
pas de nuages en-dessous de 1500 mètres et pas de cumulonimbus.

METAR: LICA 210550Z 07005KT CAVOK 00/M02 Q1024

Heure: 08:34 (07:34 UTC)

Prévision

Le bulletin a été fait il y a 2 heures et 34 minutes, à 05:00 UTC
Prévision valable du 21 à 06 UTC au 22 à 06 UTC
Vent 5 kt de direction variable
Visibilité 10 km ou plus
Quelques nuages à une hauteur de 2500 ft
Evoluant progressivement
du 21 à 09 UTC au 21 à 11 UTC
Vent 12 kt de ouest
Evoluant progressivement
du 21 à 17 UTC au 21 à 19 UTC
Vent 5 kt de direction variable

TAF: LICA 210500Z 2106/2206 VRB05KT 9999 FEW025 BECMG 2109/2111 26012KT BECMG 2117/2119 VRB05KT

Observations et prévisions météorologiques de plus de 4000 aéroports (messages METAR et TAF).

Les stations disponibles sont représentées par des disques jaunes et rouges sur la carte.

Passer la souris dessus pour voir le nom de la station.

Cliquer dessus pour voir les observations et prévisions météorologiques.

Pour changer de carte: cliquez sur les boutons verts avec une croix noire pour zoomer, sur le bouton vert avec un tiret pour effectuer un zoom arrière, ou sur les flèches vertes pour les cartes adjacentes.


METAR-TAF: